Time;durP1;ratioP1;P1;durP2;ratioP2;P2;SDS_P1;SDS_P2;PMS_P1;PMS_P2;Temp;Humidity;BMP_temperature;BMP_pressure;BME280_temperature;BME280_humidity;BME280_pressure;Samples;Min_cycle;Max_cycle;Signal;HPM_P1;HPM_P2
2021/01/23 00:00:19;;;;;;;11.48;5.35;;;256.70;1792.00;;;;;;5004450;28;20027;-69
2021/01/23 00:02:44;;;;;;;8.55;6.20;;;256.70;1792.00;;;;;;5004130;28;20042;-69
2021/01/23 00:05:10;;;;;;;10.10;5.72;;;256.70;1792.00;;;;;;5003938;28;20046;-69
2021/01/23 00:07:36;;;;;;;13.05;5.68;;;256.70;1792.00;;;;;;5006439;28;20539;-69
2021/01/23 00:10:03;;;;;;;7.65;5.07;;;256.70;1792.00;;;;;;5008549;28;20018;-69
2021/01/23 00:12:29;;;;;;;10.75;5.20;;;256.70;1792.00;;;;;;5005044;28;20116;-69
2021/01/23 00:14:55;;;;;;;11.60;5.00;;;256.70;1792.00;;;;;;5006329;28;20456;-70
2021/01/23 00:17:20;;;;;;;7.60;5.10;;;256.80;1792.00;;;;;;5005529;28;20069;-69
2021/01/23 00:19:46;;;;;;;7.93;5.07;;;256.80;1792.00;;;;;;5006927;28;20029;-69
2021/01/23 00:22:12;;;;;;;6.80;3.97;;;256.80;1792.00;;;;;;5013735;28;20088;-70
2021/01/23 00:24:38;;;;;;;11.25;4.60;;;256.80;1792.00;;;;;;5005138;28;20042;-70
2021/01/23 00:27:04;;;;;;;8.55;4.28;;;256.80;1792.00;;;;;;5014771;28;20088;-70
2021/01/23 00:29:30;;;;;;;6.97;4.28;;;256.90;1792.00;;;;;;5014796;28;20022;-67
2021/01/23 00:31:56;;;;;;;7.40;4.20;;;256.90;1792.00;;;;;;5014483;28;20034;-70
2021/01/23 00:34:21;;;;;;;7.70;4.10;;;256.90;1792.00;;;;;;5014837;28;20049;-70
2021/01/23 00:36:47;;;;;;;6.30;4.25;;;256.90;1792.00;;;;;;5014515;28;20460;-70
2021/01/23 00:39:13;;;;;;;6.70;4.25;;;256.90;1792.00;;;;;;5014312;28;20034;-70
2021/01/23 00:41:39;;;;;;;8.20;4.32;;;256.90;1792.00;;;;;;5014920;28;20066;-70
2021/01/23 00:44:04;;;;;;;8.57;4.75;;;256.90;1792.00;;;;;;5013961;28;20103;-70
2021/01/23 00:46:30;;;;;;;6.93;4.57;;;256.90;1792.00;;;;;;5014585;28;20393;-70
2021/01/23 00:48:56;;;;;;;8.23;4.30;;;256.90;1792.00;;;;;;5014640;28;20379;-70
2021/01/23 00:51:22;;;;;;;7.75;4.53;;;256.90;1766.40;;;;;;5013757;28;20471;-70
2021/01/23 00:53:47;;;;;;;8.20;4.43;;;256.90;1766.40;;;;;;5014414;28;20057;-70
2021/01/23 00:56:13;;;;;;;8.52;5.13;;;256.90;1766.40;;;;;;5014494;28;20101;-70
2021/01/23 00:58:39;;;;;;;9.98;4.93;;;256.90;1766.40;;;;;;5014331;28;20040;-70
2021/01/23 01:01:06;;;;;;;7.28;4.47;;;256.90;1766.40;;;;;;5014437;28;20030;-70
2021/01/23 01:03:32;;;;;;;10.27;5.38;;;256.90;1766.40;;;;;;5014140;28;20037;-70
2021/01/23 01:05:58;;;;;;;6.40;4.40;;;256.80;1766.40;;;;;;5014351;28;20076;-70
2021/01/23 01:08:24;;;;;;;9.07;4.82;;;256.80;1766.40;;;;;;5014068;28;20030;-70
2021/01/23 01:10:50;;;;;;;7.97;4.13;;;256.80;1766.40;;;;;;5014143;28;20057;-70
2021/01/23 01:13:16;;;;;;;8.23;5.05;;;256.80;1766.40;;;;;;5014342;28;20052;-70
2021/01/23 01:15:42;;;;;;;6.82;4.13;;;256.80;1766.40;;;;;;5014045;28;20034;-70
2021/01/23 01:18:08;;;;;;;7.45;4.00;;;256.90;1766.40;;;;;;5014027;28;20038;-71
2021/01/23 01:20:35;;;;;;;9.15;4.60;;;256.90;1766.40;;;;;;5014013;28;20018;-70
2021/01/23 01:23:01;;;;;;;7.32;4.13;;;256.90;1766.40;;;;;;5014170;28;20026;-70
2021/01/23 01:25:27;;;;;;;8.90;4.22;;;256.90;1766.40;;;;;;5013833;28;20077;-70
2021/01/23 01:27:53;;;;;;;6.50;4.15;;;256.90;1766.40;;;;;;5013543;28;20112;-70
2021/01/23 01:30:23;;;;;;;6.38;3.88;;;256.90;1766.40;;;;;;5013640;28;20026;-70
2021/01/23 01:32:49;;;;;;;8.90;3.97;;;256.90;1766.40;;;;;;5014039;28;20026;-70
2021/01/23 01:35:15;;;;;;;7.65;4.03;;;256.90;1766.40;;;;;;5014103;28;20359;-70
2021/01/23 01:37:41;;;;;;;6.03;4.03;;;256.90;1766.40;;;;;;5013955;28;20040;-70
2021/01/23 01:40:07;;;;;;;7.55;4.43;;;256.90;1766.40;;;;;;5013927;28;20018;-70
2021/01/23 01:42:33;;;;;;;7.22;4.25;;;256.90;1766.40;;;;;;5013450;28;20026;-70
2021/01/23 01:44:59;;;;;;;6.97;4.20;;;256.90;1766.40;;;;;;5013880;28;20368;-70
2021/01/23 01:47:25;;;;;;;7.07;4.65;;;256.90;1766.40;;;;;;5013855;28;20080;-70
2021/01/23 01:49:51;;;;;;;11.48;5.05;;;256.90;1766.40;;;;;;5013838;28;20026;-70
2021/01/23 01:52:17;;;;;;;10.02;4.68;;;256.90;1766.40;;;;;;5013651;28;20026;-70
2021/01/23 01:54:44;;;;;;;7.60;4.97;;;256.90;1766.40;;;;;;5013631;28;20030;-70
2021/01/23 01:57:10;;;;;;;6.45;4.30;;;256.90;1766.40;;;;;;5013790;28;20088;-70
2021/01/23 01:59:35;;;;;;;8.25;4.25;;;256.90;1766.40;;;;;;5013736;28;20030;-70
2021/01/23 02:02:19;;;;;;;7.13;4.20;;;256.90;1766.40;;;;;;5013751;28;20105;-70
2021/01/23 02:05:01;;;;;;;8.05;4.10;;;256.90;1766.40;;;;;;5017469;28;20537;-69
2021/01/23 02:07:39;;;;;;;8.80;4.45;;;256.90;1766.40;;;;;;5017743;28;20030;-70
2021/01/23 02:10:20;;;;;;;6.88;4.10;;;256.90;1766.40;;;;;;5017220;28;20030;-70
2021/01/23 02:13:22;;;;;;;7.28;4.32;;;256.90;1766.40;;;;;;5017449;28;20028;-70
2021/01/23 02:15:55;;;;;;;7.85;4.07;;;256.90;1766.40;;;;;;5017437;28;20045;-70
2021/01/23 02:18:24;;;;;;;7.80;4.18;;;256.80;1766.40;;;;;;5017226;28;20033;-70
2021/01/23 02:21:28;;;;;;;9.07;4.40;;;256.90;1766.40;;;;;;5017224;28;20096;-70
2021/01/23 02:23:58;;;;;;;8.25;4.05;;;256.90;1740.80;;;;;;5016968;28;20046;-71
2021/01/23 02:26:32;;;;;;;7.28;4.18;;;256.90;1766.40;;;;;;5017177;28;20025;-70
2021/01/23 02:29:13;;;;;;;7.70;3.70;;;256.90;1766.40;;;;;;5017195;28;20025;-70
2021/01/23 02:31:47;;;;;;;6.18;3.90;;;256.90;1740.80;;;;;;5017170;28;20057;-70
2021/01/23 02:34:18;;;;;;;11.52;4.30;;;281.60;1766.40;;;;;;5017055;28;20109;-70
2021/01/23 02:36:45;;;;;;;6.68;3.53;;;256.90;1740.80;;;;;;5016982;28;20022;-70
2021/01/23 02:39:12;;;;;;;7.68;3.90;;;281.60;1766.40;;;;;;5017004;28;20022;-70
2021/01/23 02:41:37;;;;;;;12.35;4.15;;;281.60;1766.40;;;;;;5016601;28;20029;-70
2021/01/23 02:44:03;;;;;;;8.98;3.90;;;281.60;1766.40;;;;;;5016628;28;20026;-70
2021/01/23 02:46:29;;;;;;;7.22;3.80;;;281.60;1740.80;;;;;;5016644;28;20056;-70
2021/01/23 02:48:56;;;;;;;9.52;4.13;;;281.70;1740.80;;;;;;5016891;28;20026;-70
2021/01/23 02:51:26;;;;;;;8.63;4.38;;;281.70;1740.80;;;;;;5016631;28;20034;-70
2021/01/23 02:53:58;;;;;;;6.00;3.83;;;281.70;1740.80;;;;;;5016635;28;20053;-70
2021/01/23 02:56:25;;;;;;;8.63;3.60;;;281.70;1740.80;;;;;;5016266;28;20424;-70
2021/01/23 02:58:53;;;;;;;9.00;3.80;;;281.80;1740.80;;;;;;5016652;28;20030;-70
2021/01/23 03:01:22;;;;;;;7.00;3.15;;;281.80;1740.80;;;;;;5016446;28;20029;-70
2021/01/23 03:03:53;;;;;;;7.93;3.70;;;281.80;1740.80;;;;;;5016408;28;20022;-70
2021/01/23 03:06:19;;;;;;;7.65;3.60;;;281.80;1740.80;;;;;;5016402;28;20022;-70
2021/01/23 03:08:46;;;;;;;8.10;4.25;;;281.80;1740.80;;;;;;5016322;28;20030;-69
2021/01/23 03:11:11;;;;;;;7.32;4.30;;;281.80;1740.80;;;;;;5016552;28;20375;-70
2021/01/23 03:13:37;;;;;;;7.43;3.67;;;281.90;1740.80;;;;;;5016209;28;20037;-69
2021/01/23 03:16:03;;;;;;;6.70;3.60;;;281.90;1715.20;;;;;;5015457;28;20463;-70
2021/01/23 03:18:29;;;;;;;8.40;3.70;;;281.80;1715.20;;;;;;5015645;28;20404;-70
2021/01/23 03:20:55;;;;;;;8.70;4.28;;;281.90;1715.20;;;;;;5015413;28;20038;-70
2021/01/23 03:23:20;;;;;;;8.52;3.92;;;281.90;1715.20;;;;;;5015861;28;20034;-69
2021/01/23 03:25:46;;;;;;;8.68;3.90;;;282.00;1715.20;;;;;;5015797;28;20025;-70
2021/01/23 03:28:12;;;;;;;7.90;4.25;;;282.00;1715.20;;;;;;5015999;28;20044;-71
2021/01/23 03:30:38;;;;;;;8.15;3.97;;;282.00;1715.20;;;;;;5015937;28;20092;-70
2021/01/23 03:33:04;;;;;;;6.82;3.95;;;282.00;1715.20;;;;;;5015741;28;20479;-70
2021/01/23 03:35:29;;;;;;;8.88;4.15;;;282.00;1715.20;;;;;;5015872;28;20073;-71
2021/01/23 03:37:56;;;;;;;10.98;4.85;;;282.00;1715.20;;;;;;5015579;28;20034;-71
2021/01/23 03:40:22;;;;;;;9.23;4.43;;;282.00;1715.20;;;;;;5016056;28;20475;-71
2021/01/23 03:42:47;;;;;;;7.88;4.10;;;282.10;1715.20;;;;;;5015631;28;20026;-71
2021/01/23 03:45:14;;;;;;;7.25;4.35;;;282.10;1715.20;;;;;;5015496;28;20084;-70
2021/01/23 03:47:39;;;;;;;8.32;3.83;;;282.10;1715.20;;;;;;5015622;28;20092;-69
2021/01/23 03:50:09;;;;;;;11.18;3.85;;;282.10;1715.20;;;;;;5015628;28;20022;-70
2021/01/23 03:52:36;;;;;;;7.13;4.28;;;282.10;1715.20;;;;;;5015563;28;20083;-70
2021/01/23 03:55:03;;;;;;;9.40;3.97;;;282.10;1715.20;;;;;;5015164;28;20109;-69
2021/01/23 03:57:29;;;;;;;10.27;4.35;;;282.10;1715.20;;;;;;5015140;28;20946;-70
2021/01/23 03:59:55;;;;;;;8.30;4.40;;;282.10;1715.20;;;;;;5015276;28;20026;-70
2021/01/23 04:02:20;;;;;;;7.50;4.18;;;282.10;1715.20;;;;;;5015186;28;20430;-70
2021/01/23 04:04:46;;;;;;;7.80;3.88;;;282.10;1715.20;;;;;;5015193;28;20113;-70
2021/01/23 04:07:12;;;;;;;6.65;3.67;;;282.10;1689.60;;;;;;5015070;28;20025;-70
2021/01/23 04:09:38;;;;;;;12.23;4.85;;;282.10;1689.60;;;;;;5015085;28;20352;-70
2021/01/23 04:12:04;;;;;;;5.93;3.47;;;282.10;1689.60;;;;;;5015260;28;20080;-71
2021/01/23 04:14:30;;;;;;;8.18;3.75;;;282.20;1689.60;;;;;;5014997;28;20105;-70
2021/01/23 04:16:56;;;;;;;5.30;3.20;;;282.20;1689.60;;;;;;5015004;28;20109;-70
2021/01/23 04:19:22;;;;;;;8.98;3.65;;;282.20;1689.60;;;;;;5015061;28;20072;-70
2021/01/23 04:21:47;;;;;;;5.40;3.55;;;282.20;1689.60;;;;;;5015294;28;20018;-72
2021/01/23 04:24:13;;;;;;;13.02;3.63;;;282.20;1689.60;;;;;;5014284;28;20080;-70
2021/01/23 04:26:42;;;;;;;9.13;4.05;;;282.20;1689.60;;;;;;5013477;28;20057;-70
2021/01/23 04:29:08;;;;;;;8.23;3.60;;;282.20;1689.60;;;;;;5015152;28;20026;-70
2021/01/23 04:31:35;;;;;;;6.57;3.40;;;282.20;1689.60;;;;;;5014929;28;20022;-69
2021/01/23 04:34:01;;;;;;;13.25;4.53;;;282.20;1689.60;;;;;;5014694;28;20530;-70
2021/01/23 04:36:27;;;;;;;8.85;4.13;;;282.20;1689.60;;;;;;5014743;28;20025;-70
2021/01/23 04:38:53;;;;;;;9.65;4.30;;;282.20;1689.60;;;;;;5014501;28;20088;-70
2021/01/23 04:41:19;;;;;;;9.52;3.78;;;282.20;1689.60;;;;;;5014680;28;20459;-69
2021/01/23 04:43:45;;;;;;;9.18;3.50;;;282.20;1689.60;;;;;;5014448;28;20439;-69
2021/01/23 04:46:12;;;;;;;8.48;3.85;;;282.20;1689.60;;;;;;5014571;28;20364;-69
2021/01/23 04:48:37;;;;;;;6.00;4.10;;;282.10;1689.60;;;;;;5014551;28;20371;-70
2021/01/23 04:51:03;;;;;;;7.03;3.60;;;282.10;1689.60;;;;;;5014059;28;20026;-70
2021/01/23 04:53:29;;;;;;;7.78;3.22;;;282.10;1664.00;;;;;;5014145;28;20049;-70
2021/01/23 04:55:55;;;;;;;9.38;3.63;;;282.10;1664.00;;;;;;5014341;28;20017;-70
2021/01/23 04:58:20;;;;;;;9.02;3.17;;;282.10;1664.00;;;;;;5014172;28;20053;-69
2021/01/23 05:00:46;;;;;;;9.63;3.20;;;282.20;1664.00;;;;;;5014271;28;20029;-70
2021/01/23 05:03:12;;;;;;;9.43;3.92;;;282.20;1664.00;;;;;;5013734;28;20082;-70
2021/01/23 05:05:38;;;;;;;5.20;2.72;;;282.20;1664.00;;;;;;5014247;28;20018;-70
2021/01/23 05:08:10;;;;;;;5.40;2.95;;;282.20;1664.00;;;;;;5014199;28;20053;-69
2021/01/23 05:10:36;;;;;;;7.22;3.45;;;282.20;1664.00;;;;;;5014190;28;20104;-70
2021/01/23 05:13:15;;;;;;;8.70;4.18;;;282.20;1664.00;;;;;;5014524;28;20026;-70
2021/01/23 05:15:45;;;;;;;10.43;4.65;;;282.20;1664.00;;;;;;5013957;28;20022;-70
2021/01/23 05:18:13;;;;;;;7.85;3.80;;;282.20;1664.00;;;;;;5013958;28;20034;-70
2021/01/23 05:20:55;;;;;;;6.15;3.38;;;282.30;1664.00;;;;;;5014144;28;20427;-69
2021/01/23 05:23:26;;;;;;;7.22;3.83;;;282.30;1638.40;;;;;;5013790;28;20032;-70
2021/01/23 05:25:59;;;;;;;12.13;4.50;;;282.20;1664.00;;;;;;5013873;28;20088;-70
2021/01/23 05:28:30;;;;;;;9.73;5.00;;;282.20;1664.00;;;;;;5014080;28;20037;-70
2021/01/23 05:30:56;;;;;;;9.45;4.50;;;282.20;1638.40;;;;;;5014013;28;20532;-70
2021/01/23 05:33:23;;;;;;;8.73;3.80;;;282.20;1664.00;;;;;;5014046;28;20357;-70
2021/01/23 05:36:08;;;;;;;6.72;3.30;;;282.20;1638.40;;;;;;5014144;28;20029;-70
2021/01/23 05:38:44;;;;;;;;;;;282.30;1638.40;;;;;;5016516;28;20062;-70
2021/01/23 05:41:11;;;;;;;8.30;3.97;;;282.20;1664.00;;;;;;5017843;28;19905;-70
2021/01/23 05:43:48;;;;;;;9.38;3.65;;;282.20;1664.00;;;;;;5018045;28;20049;-69
2021/01/23 05:46:14;;;;;;;10.60;3.55;;;282.30;1638.40;;;;;;5017956;28;20022;-70
2021/01/23 05:48:45;;;;;;;10.88;4.32;;;282.30;1638.40;;;;;;5017917;28;20026;-70
2021/01/23 05:51:13;;;;;;;7.68;3.53;;;282.30;1638.40;;;;;;5017686;28;20133;-70
2021/01/23 05:53:39;;;;;;;8.18;3.85;;;282.30;1638.40;;;;;;5017713;28;20033;-70
2021/01/23 05:56:05;;;;;;;8.30;5.07;;;282.30;1638.40;;;;;;5017755;28;20022;-70
2021/01/23 05:58:34;;;;;;;9.20;5.03;;;282.30;1638.40;;;;;;5017973;28;20124;-70
2021/01/23 06:01:07;;;;;;;20.00;6.88;;;282.40;1638.40;;;;;;5017615;28;20121;-71
2021/01/23 06:03:41;;;;;;;19.98;7.40;;;282.40;1638.40;;;;;;5017324;28;20479;-71
2021/01/23 06:06:07;;;;;;;8.77;5.07;;;282.40;1638.40;;;;;;5017599;28;20026;-71
2021/01/23 06:08:43;;;;;;;6.63;3.60;;;282.40;1638.40;;;;;;5017401;28;20113;-70
2021/01/23 06:11:18;;;;;;;6.80;3.65;;;282.40;1638.40;;;;;;5017289;28;20100;-71
2021/01/23 06:13:46;;;;;;;6.72;3.28;;;282.40;1638.40;;;;;;5017339;28;20084;-71
2021/01/23 06:16:31;;;;;;;7.45;3.65;;;282.50;1638.40;;;;;;5017147;28;20054;-71
2021/01/23 06:19:06;;;;;;;6.73;3.97;;;282.50;1612.80;;;;;;5017039;28;20034;-70
2021/01/23 06:21:44;;;;;;;16.20;6.57;;;282.50;1638.40;;;;;;5017347;28;20478;-71
2021/01/23 06:24:11;;;;;;;14.73;6.82;;;307.20;1740.80;;;;;;5016929;28;20046;-71
2021/01/23 06:27:00;;;;;;;8.38;4.28;;;307.20;1664.00;;;;;;5017294;28;20053;-72
2021/01/23 06:29:32;;;;;;;7.57;3.78;;;307.20;1664.00;;;;;;4956566;29;20118;-71
2021/01/23 06:32:18;;;;;;;6.15;2.95;;;307.20;1638.40;;;;;;4956531;29;20047;-72
2021/01/23 06:34:52;;;;;;;14.48;3.63;;;307.20;1638.40;;;;;;4955901;28;20040;-70
2021/01/23 06:37:29;;;;;;;7.80;3.40;;;307.20;1664.00;;;;;;4956330;29;20039;-71
2021/01/23 06:40:12;;;;;;;12.25;3.55;;;307.20;1638.40;;;;;;4956408;29;20222;-71
2021/01/23 06:42:42;;;;;;;10.13;3.38;;;307.20;1638.40;;;;;;4956426;29;20034;-71
2021/01/23 06:45:33;;;;;;;8.73;3.35;;;307.20;1664.00;;;;;;4956523;29;20496;-71
2021/01/23 06:47:59;;;;;;;9.52;2.97;;;307.20;1664.00;;;;;;4956368;29;20051;-71
2021/01/23 06:50:38;;;;;;;7.88;3.28;;;307.20;1638.40;;;;;;4955142;28;20046;-72
2021/01/23 06:53:06;;;;;;;10.55;3.00;;;307.20;1638.40;;;;;;4956220;29;20130;-71
2021/01/23 06:55:59;;;;;;;7.07;2.83;;;307.20;1638.40;;;;;;4956193;29;20031;-71
2021/01/23 06:58:29;;;;;;;11.15;3.63;;;307.20;1638.40;;;;;;4956012;29;20508;-71
2021/01/23 07:01:00;;;;;;;8.80;3.53;;;307.20;1638.40;;;;;;4956302;29;20071;-70
2021/01/23 07:03:28;;;;;;;9.30;3.83;;;307.20;1612.80;;;;;;4956062;29;20027;-71
2021/01/23 07:05:55;;;;;;;9.85;4.22;;;307.20;1612.80;;;;;;4973465;28;20369;-71
2021/01/23 07:08:27;;;;;;;19.75;8.98;;;307.30;1612.80;;;;;;5016051;28;20117;-70
2021/01/23 07:11:22;;;;;;;12.77;6.85;;;307.30;1612.80;;;;;;5016029;28;20030;-71
2021/01/23 07:14:01;;;;;;;17.23;6.95;;;307.30;1612.80;;;;;;4955645;28;20031;-71
2021/01/23 07:16:28;;;;;;;21.40;11.10;;;307.30;1612.80;;;;;;4955863;28;20023;-71
2021/01/23 07:18:57;;;;;;;19.38;11.52;;;307.30;1612.80;;;;;;4955717;29;20074;-71
2021/01/23 07:21:24;;;;;;;20.30;10.88;;;307.30;1612.80;;;;;;4955595;28;20099;-71
2021/01/23 07:23:53;;;;;;;22.10;8.70;;;307.30;1612.80;;;;;;4955328;28;20596;-72
2021/01/23 07:26:19;;;;;;;16.13;5.50;;;307.30;1612.80;;;;;;4955647;29;20078;-71
2021/01/23 07:28:53;;;;;;;7.78;4.63;;;307.30;1612.80;;;;;;4955220;29;20149;-71
2021/01/23 07:31:28;;;;;;;10.02;4.20;;;307.30;1587.20;;;;;;4955568;29;20039;-71
2021/01/23 07:33:55;;;;;;;6.60;3.35;;;307.30;1587.20;;;;;;4955437;29;20461;-72
2021/01/23 07:36:43;;;;;;;9.50;3.05;;;307.30;1587.20;;;;;;4955429;29;20027;-71
2021/01/23 07:39:14;;;;;;;9.93;3.08;;;307.30;1587.20;;;;;;4955337;29;20417;-71
2021/01/23 07:41:45;;;;;;;6.72;3.25;;;307.40;1612.80;;;;;;4955398;29;20039;-71
2021/01/23 07:44:12;;;;;;;8.30;3.45;;;307.40;1612.80;;;;;;4955369;29;20039;-71
2021/01/23 07:46:42;;;;;;;7.88;3.72;;;307.40;1587.20;;;;;;4955174;29;20054;-71
2021/01/23 07:49:20;;;;;;;8.35;3.20;;;307.40;1612.80;;;;;;4958309;28;20027;-71
2021/01/23 07:51:46;;;;;;;14.20;5.32;;;307.40;1612.80;;;;;;5015527;28;20353;-71
2021/01/23 07:54:13;;;;;;;8.25;3.83;;;307.40;1587.20;;;;;;5015399;28;20109;-71
2021/01/23 07:56:54;;;;;;;7.57;3.97;;;307.40;1612.80;;;;;;5015582;28;20026;-71
2021/01/23 07:59:39;;;;;;;13.25;4.65;;;307.40;1612.80;;;;;;5015206;28;20124;-71
2021/01/23 08:02:04;;;;;;;;;;;307.50;1587.20;;;;;;5015826;28;20049;-71
2021/01/23 08:04:35;;;;;;;8.10;5.30;;;307.40;1587.20;;;;;;5015375;28;19906;-71
2021/01/23 08:07:41;;;;;;;11.32;5.00;;;307.40;1612.80;;;;;;5015141;28;20022;-71
2021/01/23 08:10:13;;;;;;;16.77;7.00;;;307.50;1612.80;;;;;;4954801;29;20106;-71
2021/01/23 08:12:51;;;;;;;20.38;7.82;;;307.50;1612.80;;;;;;4954522;29;20035;-71
2021/01/23 08:15:27;;;;;;;17.88;8.70;;;307.50;1612.80;;;;;;4954873;29;20078;-71
2021/01/23 08:17:54;;;;;;;15.20;6.47;;;307.50;1612.80;;;;;;4954489;28;20039;-71
2021/01/23 08:20:37;;;;;;;13.40;5.18;;;307.50;1612.80;;;;;;4954571;29;20030;-71
2021/01/23 08:23:11;;;;;;;11.93;4.35;;;307.50;1587.20;;;;;;4954707;29;20027;-71
2021/01/23 08:25:40;;;;;;;;;;;307.50;1612.80;;;;;;4954963;28;20047;-71
2021/01/23 08:28:07;;;;;;;7.68;4.40;;;307.50;1612.80;;;;;;4954546;28;19906;-71
2021/01/23 08:30:36;;;;;;;11.23;4.78;;;307.50;1612.80;;;;;;4954174;28;20090;-71
2021/01/23 08:33:04;;;;;;;15.88;4.65;;;307.50;1612.80;;;;;;4938260;29;20038;-71
2021/01/23 08:35:31;;;;;;;9.38;4.00;;;307.50;1587.20;;;;;;4954355;29;20450;-71
2021/01/23 08:37:56;;;;;;;9.82;3.95;;;307.50;1587.20;;;;;;4954346;29;20138;-71
2021/01/23 08:40:23;;;;;;;6.90;4.20;;;307.50;1587.20;;;;;;4954472;29;20128;-71
2021/01/23 08:42:49;;;;;;;13.68;4.55;;;307.60;1587.20;;;;;;4955484;28;20090;-71
2021/01/23 08:45:17;;;;;;;12.50;4.28;;;307.60;1587.20;;;;;;5014993;28;20119;-71
2021/01/23 08:47:43;;;;;;;9.82;4.50;;;307.70;1587.20;;;;;;5014368;28;20029;-71
2021/01/23 08:50:09;;;;;;;6.10;3.67;;;307.70;1587.20;;;;;;5014660;28;20018;-71
2021/01/23 08:52:36;;;;;;;11.63;4.40;;;307.70;1587.20;;;;;;5014560;28;20233;-71
2021/01/23 08:55:03;;;;;;;10.38;4.40;;;307.70;1587.20;;;;;;5014215;28;20463;-71
2021/01/23 08:57:29;;;;;;;9.85;4.93;;;307.70;1587.20;;;;;;5014335;28;20029;-71
2021/01/23 08:59:55;;;;;;;12.05;5.03;;;307.70;1561.60;;;;;;5014361;28;20037;-70
2021/01/23 09:02:20;;;;;;;6.18;3.53;;;307.70;1561.60;;;;;;5013957;28;20059;-71
2021/01/23 09:04:47;;;;;;;10.75;4.22;;;307.70;1561.60;;;;;;5014227;28;20029;-71
2021/01/23 09:07:12;;;;;;;9.13;3.15;;;307.80;1561.60;;;;;;5014219;28;20022;-71
2021/01/23 09:09:38;;;;;;;10.55;4.13;;;307.80;1561.60;;;;;;4995989;28;20399;-71
2021/01/23 09:12:05;;;;;;;8.13;3.70;;;307.80;1561.60;;;;;;5013712;28;20026;-70
2021/01/23 09:14:30;;;;;;;14.65;4.93;;;307.80;1561.60;;;;;;5014004;28;20030;-71
2021/01/23 09:16:56;;;;;;;10.23;4.53;;;307.80;1561.60;;;;;;5014144;28;20101;-70
2021/01/23 09:19:22;;;;;;;9.00;4.13;;;307.80;1561.60;;;;;;5013907;28;20419;-70
2021/01/23 09:21:48;;;;;;;8.38;3.55;;;307.80;1561.60;;;;;;5014158;28;20033;-71
2021/01/23 09:24:14;;;;;;;9.55;3.95;;;307.90;1561.60;;;;;;5013821;28;20050;-70
2021/01/23 09:26:41;;;;;;;8.25;3.05;;;307.90;1561.60;;;;;;5014212;28;20376;-70
2021/01/23 09:29:06;;;;;;;7.97;3.65;;;307.90;1561.60;;;;;;5014328;28;20080;-71
2021/01/23 09:31:32;;;;;;;13.00;4.13;;;307.90;1561.60;;;;;;5013806;28;20511;-71
2021/01/23 09:33:58;;;;;;;9.35;4.38;;;307.90;1561.60;;;;;;5013881;28;20026;-71
2021/01/23 09:36:23;;;;;;;7.18;3.85;;;307.90;1561.60;;;;;;5014051;28;20041;-71
2021/01/23 09:38:49;;;;;;;6.82;3.63;;;307.90;1561.60;;;;;;5013458;28;20034;-71
2021/01/23 09:41:15;;;;;;;6.55;3.67;;;307.90;1561.60;;;;;;5013928;28;20046;-71
2021/01/23 09:43:41;;;;;;;10.05;3.78;;;307.90;1561.60;;;;;;5013885;28;20032;-71
2021/01/23 09:46:06;;;;;;;10.73;4.68;;;308.00;1561.60;;;;;;5013444;28;20022;-70
2021/01/23 09:48:32;;;;;;;9.73;3.67;;;308.00;1561.60;;;;;;5013965;28;20030;-69
2021/01/23 09:50:58;;;;;;;9.13;3.55;;;308.00;1561.60;;;;;;5013894;28;20026;-71
2021/01/23 09:53:23;;;;;;;9.85;4.10;;;308.00;1561.60;;;;;;5013251;28;20037;-69
2021/01/23 09:55:49;;;;;;;7.38;3.97;;;308.00;1561.60;;;;;;5013801;28;20018;-72
2021/01/23 09:58:15;;;;;;;11.43;4.28;;;308.00;1561.60;;;;;;5013777;28;20443;-71
2021/01/23 10:00:40;;;;;;;13.32;4.25;;;308.00;1561.60;;;;;;5013599;28;20447;-70
2021/01/23 10:03:06;;;;;;;11.05;4.50;;;308.00;1561.60;;;;;;5013674;28;20034;-70
2021/01/23 10:05:33;;;;;;;9.00;4.18;;;308.00;1561.60;;;;;;5013590;28;20029;-68
2021/01/23 10:07:59;;;;;;;10.48;4.43;;;308.00;1561.60;;;;;;5013328;28;20391;-68
2021/01/23 10:10:25;;;;;;;10.27;4.68;;;308.00;1561.60;;;;;;5013407;28;20452;-71
2021/01/23 10:12:51;;;;;;;10.65;4.68;;;308.00;1561.60;;;;;;5013511;28;20033;-71
2021/01/23 10:15:17;;;;;;;14.32;4.90;;;308.00;1561.60;;;;;;5013618;28;20025;-71
2021/01/23 10:17:43;;;;;;;11.40;5.70;;;308.00;1536.00;;;;;;5013324;28;20091;-71
2021/01/23 10:20:10;;;;;;;13.88;6.07;;;308.00;1561.60;;;;;;5013570;28;20439;-71
2021/01/23 10:22:35;;;;;;;11.25;5.65;;;308.00;1561.60;;;;;;5012990;28;20434;-70
2021/01/23 10:25:01;;;;;;;11.35;4.95;;;308.10;1536.00;;;;;;5016164;28;20057;-71
2021/01/23 10:27:27;;;;;;;11.38;4.57;;;308.10;1536.00;;;;;;5017233;28;20025;-71
2021/01/23 10:29:53;;;;;;;11.48;5.15;;;308.10;1536.00;;;;;;5017034;28;20464;-71
2021/01/23 10:32:18;;;;;;;8.98;5.07;;;308.10;1561.60;;;;;;5017526;28;20104;-71
2021/01/23 10:34:44;;;;;;;10.23;5.20;;;308.10;1536.00;;;;;;5017171;28;20057;-71
2021/01/23 10:37:10;;;;;;;11.40;5.60;;;308.10;1536.00;;;;;;5016345;28;20416;-71
2021/01/23 10:39:36;;;;;;;12.82;6.13;;;308.10;1536.00;;;;;;5013547;28;20084;-71
2021/01/23 10:42:03;;;;;;;21.80;7.60;;;308.10;1536.00;;;;;;5015931;28;20034;-71
2021/01/23 10:44:28;;;;;;;16.50;6.97;;;308.10;1536.00;;;;;;5015936;28;20045;-71
2021/01/23 10:46:54;;;;;;;13.38;7.65;;;308.10;1561.60;;;;;;5015475;28;20061;-71
2021/01/23 10:49:20;;;;;;;19.05;9.85;;;308.10;1561.60;;;;;;5015900;28;20022;-70
2021/01/23 10:51:45;;;;;;;24.25;14.45;;;308.10;1561.60;;;;;;5015817;28;20034;-70
2021/01/23 10:54:11;;;;;;;21.38;11.98;;;308.10;1561.60;;;;;;5013194;28;20832;-70
2021/01/23 10:56:37;;;;;;;19.05;9.60;;;308.10;1561.60;;;;;;5014966;28;20057;-71
2021/01/23 10:59:03;;;;;;;11.75;7.85;;;308.10;1561.60;;;;;;5015322;28;20058;-70
2021/01/23 11:01:32;;;;;;;16.15;8.02;;;308.10;1561.60;;;;;;5014385;28;20109;-70
2021/01/23 11:03:58;;;;;;;15.98;7.57;;;308.10;1561.60;;;;;;5013959;28;20061;-71
2021/01/23 11:06:24;;;;;;;12.00;6.38;;;308.10;1561.60;;;;;;5016080;28;20037;-71
2021/01/23 11:08:50;;;;;;;14.35;5.90;;;308.10;1561.60;;;;;;5016217;28;20022;-68
2021/01/23 11:11:16;;;;;;;15.05;5.90;;;308.10;1561.60;;;;;;4998610;28;20026;-71
2021/01/23 11:13:42;;;;;;;13.15;6.88;;;308.10;1561.60;;;;;;5016468;28;20360;-71
2021/01/23 11:16:09;;;;;;;11.68;6.18;;;308.10;1561.60;;;;;;4998219;28;20030;-71
2021/01/23 11:18:35;;;;;;;13.77;5.95;;;308.10;1561.60;;;;;;5016247;28;20349;-71
2021/01/23 11:21:02;;;;;;;14.43;6.57;;;308.10;1561.60;;;;;;5016219;28;20025;-71
2021/01/23 11:23:27;;;;;;;11.75;7.10;;;308.10;1561.60;;;;;;4998180;28;20033;-71
2021/01/23 11:25:53;;;;;;;13.30;6.32;;;308.10;1561.60;;;;;;4998480;28;20041;-73
2021/01/23 11:28:19;;;;;;;12.77;7.00;;;308.10;1587.20;;;;;;5015931;28;20034;-71
2021/01/23 11:30:44;;;;;;;11.48;7.30;;;308.10;1587.20;;;;;;5015969;28;20022;-71
2021/01/23 11:33:10;;;;;;;12.70;7.95;;;308.10;1587.20;;;;;;5012286;28;20429;-71
2021/01/23 11:35:36;;;;;;;15.40;9.25;;;308.10;1587.20;;;;;;4996680;28;20019;-71
2021/01/23 11:38:02;;;;;;;22.45;10.45;;;308.10;1587.20;;;;;;4995859;28;20062;-71
2021/01/23 11:40:29;;;;;;;18.58;11.10;;;308.10;1587.20;;;;;;5005330;28;20038;-71
2021/01/23 11:42:55;;;;;;;29.85;10.30;;;308.10;1587.20;;;;;;5003677;28;20026;-71
2021/01/23 11:45:21;;;;;;;19.88;7.50;;;308.10;1587.20;;;;;;5004467;28;20101;-71
2021/01/23 11:47:48;;;;;;;14.15;6.80;;;308.10;1587.20;;;;;;4996741;28;20110;-72
2021/01/23 11:50:14;;;;;;;12.20;6.13;;;308.10;1587.20;;;;;;5004751;28;20412;-71
2021/01/23 11:52:40;;;;;;;11.88;6.68;;;308.10;1587.20;;;;;;5004878;28;20029;-70
2021/01/23 11:55:06;;;;;;;12.38;5.85;;;308.10;1587.20;;;;;;5003150;28;20022;-71
2021/01/23 11:57:33;;;;;;;11.65;5.95;;;308.10;1587.20;;;;;;5004547;28;20037;-72
2021/01/23 11:59:59;;;;;;;13.65;6.45;;;308.10;1587.20;;;;;;5004415;28;20388;-72
2021/01/23 12:02:24;;;;;;;10.52;6.35;;;308.10;1587.20;;;;;;5002841;28;20480;-70
2021/01/23 12:04:51;;;;;;;13.65;6.80;;;308.10;1587.20;;;;;;5004767;28;20021;-71
2021/01/23 12:07:18;;;;;;;12.63;6.65;;;308.10;1612.80;;;;;;4997868;28;20022;-72
2021/01/23 12:09:44;;;;;;;14.38;7.45;;;308.10;1587.20;;;;;;4995577;28;20153;-72
2021/01/23 12:12:11;;;;;;;12.27;6.72;;;308.10;1587.20;;;;;;4995686;28;20034;-72
2021/01/23 12:14:37;;;;;;;11.27;6.00;;;308.10;1587.20;;;;;;4995586;28;20376;-72
2021/01/23 12:17:03;;;;;;;11.80;6.32;;;332.80;1612.80;;;;;;4995313;28;20372;-72
2021/01/23 12:19:28;;;;;;;11.30;5.70;;;332.80;1612.80;;;;;;4995203;28;20026;-72